sensor_id;sensor_type;location;lat;lon;timestamp;temperature;humidity
11454;DHT22;5783;55.174;61.310;2023-02-15T00:02:09;13.50;33.40
11454;DHT22;5783;55.174;61.310;2023-02-15T00:04:38;13.50;32.70
11454;DHT22;5783;55.174;61.310;2023-02-15T00:07:26;13.60;32.70
11454;DHT22;5783;55.174;61.310;2023-02-15T00:09:56;13.50;32.30
11454;DHT22;5783;55.174;61.310;2023-02-15T00:12:25;13.50;30.90
11454;DHT22;5783;55.174;61.310;2023-02-15T00:14:54;13.60;30.70
11454;DHT22;5783;55.174;61.310;2023-02-15T00:17:23;13.80;30.60
11454;DHT22;5783;55.174;61.310;2023-02-15T00:19:52;13.80;30.30
11454;DHT22;5783;55.174;61.310;2023-02-15T00:22:22;13.90;30.00
11454;DHT22;5783;55.174;61.310;2023-02-15T00:24:51;13.90;30.40
11454;DHT22;5783;55.174;61.310;2023-02-15T00:27:20;13.90;30.10
11454;DHT22;5783;55.174;61.310;2023-02-15T00:29:49;13.90;29.80
11454;DHT22;5783;55.174;61.310;2023-02-15T00:32:18;14.00;29.90
11454;DHT22;5783;55.174;61.310;2023-02-15T00:34:47;14.10;29.90
11454;DHT22;5783;55.174;61.310;2023-02-15T00:37:16;14.10;30.10
11454;DHT22;5783;55.174;61.310;2023-02-15T00:39:45;14.20;29.90
11454;DHT22;5783;55.174;61.310;2023-02-15T00:42:15;14.20;29.80
11454;DHT22;5783;55.174;61.310;2023-02-15T00:44:44;14.10;29.30
11454;DHT22;5783;55.174;61.310;2023-02-15T00:47:13;14.10;29.50
11454;DHT22;5783;55.174;61.310;2023-02-15T00:49:42;13.90;29.70
11454;DHT22;5783;55.174;61.310;2023-02-15T00:52:11;13.90;29.50
11454;DHT22;5783;55.174;61.310;2023-02-15T00:54:40;13.90;29.80
11454;DHT22;5783;55.174;61.310;2023-02-15T00:57:09;13.90;30.00
11454;DHT22;5783;55.174;61.310;2023-02-15T01:02:09;13.80;29.90
11454;DHT22;5783;55.174;61.310;2023-02-15T01:04:39;13.80;29.90
11454;DHT22;5783;55.174;61.310;2023-02-15T01:07:08;13.80;29.90
11454;DHT22;5783;55.174;61.310;2023-02-15T01:09:37;13.80;29.90
11454;DHT22;5783;55.174;61.310;2023-02-15T01:12:06;13.80;29.70
11454;DHT22;5783;55.174;61.310;2023-02-15T01:14:35;13.80;29.80
11454;DHT22;5783;55.174;61.310;2023-02-15T01:17:04;13.90;29.90
11454;DHT22;5783;55.174;61.310;2023-02-15T01:19:33;13.90;29.70
11454;DHT22;5783;55.174;61.310;2023-02-15T01:22:02;13.90;29.70
11454;DHT22;5783;55.174;61.310;2023-02-15T01:24:32;13.80;29.80
11454;DHT22;5783;55.174;61.310;2023-02-15T01:27:01;13.70;29.90
11454;DHT22;5783;55.174;61.310;2023-02-15T01:29:30;13.70;29.70
11454;DHT22;5783;55.174;61.310;2023-02-15T01:31:59;13.70;29.90
11454;DHT22;5783;55.174;61.310;2023-02-15T01:34:29;13.70;29.80
11454;DHT22;5783;55.174;61.310;2023-02-15T01:36:59;13.70;29.70
11454;DHT22;5783;55.174;61.310;2023-02-15T01:39:28;13.70;30.00
11454;DHT22;5783;55.174;61.310;2023-02-15T01:41:59;13.70;30.00
11454;DHT22;5783;55.174;61.310;2023-02-15T01:47:22;13.60;29.80
11454;DHT22;5783;55.174;61.310;2023-02-15T01:52:23;13.40;27.90
11454;DHT22;5783;55.174;61.310;2023-02-15T01:54:52;13.40;29.70
11454;DHT22;5783;55.174;61.310;2023-02-15T01:57:23;13.40;32.80
11454;DHT22;5783;55.174;61.310;2023-02-15T01:59:56;13.50;35.20
11454;DHT22;5783;55.174;61.310;2023-02-15T02:02:26;13.60;37.20
11454;DHT22;5783;55.174;61.310;2023-02-15T02:07:47;13.60;38.40
11454;DHT22;5783;55.174;61.310;2023-02-15T02:10:21;13.60;38.90
11454;DHT22;5783;55.174;61.310;2023-02-15T02:12:52;13.70;38.50
11454;DHT22;5783;55.174;61.310;2023-02-15T02:15:27;13.70;39.20
11454;DHT22;5783;55.174;61.310;2023-02-15T02:24:17;13.70;40.50
11454;DHT22;5783;55.174;61.310;2023-02-15T02:27:39;13.70;39.90
11454;DHT22;5783;55.174;61.310;2023-02-15T02:42:59;13.60;40.20
11454;DHT22;5783;55.174;61.310;2023-02-15T02:48:11;14.20;33.70
11454;DHT22;5783;55.174;61.310;2023-02-15T02:50:40;13.60;29.20
11454;DHT22;5783;55.174;61.310;2023-02-15T02:53:10;13.60;27.80
11454;DHT22;5783;55.174;61.310;2023-02-15T02:55:42;13.50;28.60
11454;DHT22;5783;55.174;61.310;2023-02-15T03:01:23;13.60;29.90
11454;DHT22;5783;55.174;61.310;2023-02-15T03:12:55;13.50;30.30
11454;DHT22;5783;55.174;61.310;2023-02-15T03:18:23;13.60;30.10
11454;DHT22;5783;55.174;61.310;2023-02-15T03:20:22;13.50;30.40
11454;DHT22;5783;55.174;61.310;2023-02-15T03:23:46;13.40;30.40
11454;DHT22;5783;55.174;61.310;2023-02-15T03:26:19;13.40;27.40
11454;DHT22;5783;55.174;61.310;2023-02-15T03:28:53;13.30;27.10
11454;DHT22;5783;55.174;61.310;2023-02-15T03:30:51;13.40;27.00
11454;DHT22;5783;55.174;61.310;2023-02-15T03:33:21;13.40;27.00
11454;DHT22;5783;55.174;61.310;2023-02-15T03:36:13;13.30;27.00
11454;DHT22;5783;55.174;61.310;2023-02-15T03:45:34;13.20;28.50
11454;DHT22;5783;55.174;61.310;2023-02-15T03:47:52;13.10;27.30
11454;DHT22;5783;55.174;61.310;2023-02-15T03:50:26;13.10;27.40
11454;DHT22;5783;55.174;61.310;2023-02-15T03:53:17;13.20;27.60
11454;DHT22;5783;55.174;61.310;2023-02-15T03:55:48;13.20;27.50
11454;DHT22;5783;55.174;61.310;2023-02-15T03:58:17;13.30;27.60
11454;DHT22;5783;55.174;61.310;2023-02-15T04:04:19;13.30;27.30
11454;DHT22;5783;55.174;61.310;2023-02-15T04:06:48;13.30;27.40
11454;DHT22;5783;55.174;61.310;2023-02-15T04:09:17;13.30;27.30
11454;DHT22;5783;55.174;61.310;2023-02-15T04:12:06;13.30;27.30
11454;DHT22;5783;55.174;61.310;2023-02-15T04:14:35;13.30;27.20
11454;DHT22;5783;55.174;61.310;2023-02-15T04:17:24;13.30;27.30
11454;DHT22;5783;55.174;61.310;2023-02-15T04:19:53;13.20;27.10
11454;DHT22;5783;55.174;61.310;2023-02-15T04:22:42;13.30;27.30
11454;DHT22;5783;55.174;61.310;2023-02-15T04:25:31;13.20;27.00
11454;DHT22;5783;55.174;61.310;2023-02-15T04:28:00;13.30;26.60
11454;DHT22;5783;55.174;61.310;2023-02-15T04:30:29;13.50;26.60
11454;DHT22;5783;55.174;61.310;2023-02-15T04:32:58;14.00;25.60
11454;DHT22;5783;55.174;61.310;2023-02-15T04:35:27;14.40;24.50
11454;DHT22;5783;55.174;61.310;2023-02-15T04:37:58;14.80;23.70
11454;DHT22;5783;55.174;61.310;2023-02-15T04:40:27;15.10;23.20
11454;DHT22;5783;55.174;61.310;2023-02-15T04:42:56;15.30;22.50
11454;DHT22;5783;55.174;61.310;2023-02-15T04:45:26;15.40;22.80
11454;DHT22;5783;55.174;61.310;2023-02-15T04:47:55;15.50;22.60
11454;DHT22;5783;55.174;61.310;2023-02-15T04:50:24;15.60;22.80
11454;DHT22;5783;55.174;61.310;2023-02-15T04:52:53;15.80;22.40
11454;DHT22;5783;55.174;61.310;2023-02-15T04:55:23;16.00;22.40
11454;DHT22;5783;55.174;61.310;2023-02-15T04:57:53;16.10;22.10
11454;DHT22;5783;55.174;61.310;2023-02-15T05:00:22;16.30;22.00
11454;DHT22;5783;55.174;61.310;2023-02-15T05:02:51;16.30;21.90
11454;DHT22;5783;55.174;61.310;2023-02-15T05:05:20;16.30;22.70
11454;DHT22;5783;55.174;61.310;2023-02-15T05:07:50;16.30;21.60
11454;DHT22;5783;55.174;61.310;2023-02-15T05:10:19;16.40;21.50
11454;DHT22;5783;55.174;61.310;2023-02-15T05:12:48;16.50;21.20
11454;DHT22;5783;55.174;61.310;2023-02-15T05:15:18;16.50;21.20
11454;DHT22;5783;55.174;61.310;2023-02-15T05:17:47;16.50;21.40
11454;DHT22;5783;55.174;61.310;2023-02-15T05:20:16;16.40;21.40
11454;DHT22;5783;55.174;61.310;2023-02-15T05:22:45;16.40;22.00
11454;DHT22;5783;55.174;61.310;2023-02-15T05:25:14;16.40;22.10
11454;DHT22;5783;55.174;61.310;2023-02-15T05:28:03;16.40;21.80
11454;DHT22;5783;55.174;61.310;2023-02-15T05:33:43;16.30;21.40
11454;DHT22;5783;55.174;61.310;2023-02-15T05:36:12;16.30;21.30
11454;DHT22;5783;55.174;61.310;2023-02-15T05:38:42;16.30;21.20
11454;DHT22;5783;55.174;61.310;2023-02-15T05:41:11;16.30;21.20
11454;DHT22;5783;55.174;61.310;2023-02-15T05:43:40;16.40;21.30
11454;DHT22;5783;55.174;61.310;2023-02-15T05:46:09;16.60;21.00
11454;DHT22;5783;55.174;61.310;2023-02-15T05:48:38;16.60;20.70
11454;DHT22;5783;55.174;61.310;2023-02-15T05:51:10;16.60;20.70
11454;DHT22;5783;55.174;61.310;2023-02-15T05:53:59;16.60;20.60
11454;DHT22;5783;55.174;61.310;2023-02-15T05:56:28;16.60;21.00
11454;DHT22;5783;55.174;61.310;2023-02-15T05:58:57;16.60;20.80
11454;DHT22;5783;55.174;61.310;2023-02-15T06:01:26;16.60;21.40
11454;DHT22;5783;55.174;61.310;2023-02-15T06:03:55;16.50;20.90
11454;DHT22;5783;55.174;61.310;2023-02-15T06:06:24;16.50;20.80
11454;DHT22;5783;55.174;61.310;2023-02-15T06:08:54;16.50;21.00
11454;DHT22;5783;55.174;61.310;2023-02-15T06:11:23;16.60;21.10
11454;DHT22;5783;55.174;61.310;2023-02-15T06:13:52;16.80;20.80
11454;DHT22;5783;55.174;61.310;2023-02-15T06:16:21;16.80;20.80
11454;DHT22;5783;55.174;61.310;2023-02-15T06:18:50;16.80;20.90
11454;DHT22;5783;55.174;61.310;2023-02-15T06:21:19;16.80;21.20
11454;DHT22;5783;55.174;61.310;2023-02-15T06:23:49;17.00;21.20
11454;DHT22;5783;55.174;61.310;2023-02-15T06:26:18;17.10;20.80
11454;DHT22;5783;55.174;61.310;2023-02-15T06:28:47;17.20;20.60
11454;DHT22;5783;55.174;61.310;2023-02-15T06:31:16;17.10;20.30
11454;DHT22;5783;55.174;61.310;2023-02-15T06:33:45;17.00;20.50
11454;DHT22;5783;55.174;61.310;2023-02-15T06:36:14;16.90;20.90
11454;DHT22;5783;55.174;61.310;2023-02-15T06:38:43;17.10;21.20
11454;DHT22;5783;55.174;61.310;2023-02-15T06:41:13;17.30;20.90
11454;DHT22;5783;55.174;61.310;2023-02-15T06:43:42;17.60;20.70
11454;DHT22;5783;55.174;61.310;2023-02-15T06:46:11;17.60;20.70
11454;DHT22;5783;55.174;61.310;2023-02-15T06:48:40;17.70;20.60
11454;DHT22;5783;55.174;61.310;2023-02-15T06:51:09;17.80;21.30
11454;DHT22;5783;55.174;61.310;2023-02-15T06:53:39;17.80;20.60
11454;DHT22;5783;55.174;61.310;2023-02-15T06:56:10;17.70;20.40
11454;DHT22;5783;55.174;61.310;2023-02-15T06:58:40;17.80;20.80
11454;DHT22;5783;55.174;61.310;2023-02-15T07:01:12;17.80;20.30
11454;DHT22;5783;55.174;61.310;2023-02-15T07:03:41;17.80;20.00
11454;DHT22;5783;55.174;61.310;2023-02-15T07:06:10;18.00;20.30
11454;DHT22;5783;55.174;61.310;2023-02-15T07:08:39;18.10;20.10
11454;DHT22;5783;55.174;61.310;2023-02-15T07:11:08;18.20;20.00
11454;DHT22;5783;55.174;61.310;2023-02-15T07:13:57;18.30;19.50
11454;DHT22;5783;55.174;61.310;2023-02-15T07:16:26;18.30;19.60
11454;DHT22;5783;55.174;61.310;2023-02-15T07:18:58;18.40;19.20
11454;DHT22;5783;55.174;61.310;2023-02-15T07:21:27;18.50;19.50
11454;DHT22;5783;55.174;61.310;2023-02-15T07:23:57;18.40;19.20
11454;DHT22;5783;55.174;61.310;2023-02-15T07:26:26;18.30;18.90
11454;DHT22;5783;55.174;61.310;2023-02-15T07:28:56;18.10;19.00
11454;DHT22;5783;55.174;61.310;2023-02-15T07:31:25;18.20;19.50
11454;DHT22;5783;55.174;61.310;2023-02-15T07:33:54;18.20;19.30
11454;DHT22;5783;55.174;61.310;2023-02-15T07:36:23;18.30;19.70
11454;DHT22;5783;55.174;61.310;2023-02-15T07:38:52;18.30;19.00
11454;DHT22;5783;55.174;61.310;2023-02-15T07:41:21;18.20;18.90
11454;DHT22;5783;55.174;61.310;2023-02-15T07:43:50;18.30;19.20
11454;DHT22;5783;55.174;61.310;2023-02-15T07:46:20;18.20;19.10
11454;DHT22;5783;55.174;61.310;2023-02-15T07:48:49;18.10;19.20
11454;DHT22;5783;55.174;61.310;2023-02-15T07:51:18;18.20;19.30
11454;DHT22;5783;55.174;61.310;2023-02-15T07:53:47;18.40;19.30
11454;DHT22;5783;55.174;61.310;2023-02-15T07:56:18;18.60;19.30
11454;DHT22;5783;55.174;61.310;2023-02-15T07:58:47;18.70;19.20
11454;DHT22;5783;55.174;61.310;2023-02-15T08:01:38;18.60;18.60
11454;DHT22;5783;55.174;61.310;2023-02-15T08:04:08;18.40;19.20
11454;DHT22;5783;55.174;61.310;2023-02-15T08:06:38;18.40;20.30
11454;DHT22;5783;55.174;61.310;2023-02-15T08:09:08;18.30;21.00
11454;DHT22;5783;55.174;61.310;2023-02-15T08:11:38;18.10;22.30
11454;DHT22;5783;55.174;61.310;2023-02-15T08:14:27;18.10;22.50
11454;DHT22;5783;55.174;61.310;2023-02-15T08:17:00;18.10;22.30
11454;DHT22;5783;55.174;61.310;2023-02-15T08:19:32;17.90;21.30
11454;DHT22;5783;55.174;61.310;2023-02-15T08:22:04;17.80;21.30
11454;DHT22;5783;55.174;61.310;2023-02-15T08:24:36;17.90;21.50
11454;DHT22;5783;55.174;61.310;2023-02-15T08:27:08;18.10;21.40
11454;DHT22;5783;55.174;61.310;2023-02-15T08:29:37;18.30;21.40
11454;DHT22;5783;55.174;61.310;2023-02-15T08:32:10;18.50;21.70
11454;DHT22;5783;55.174;61.310;2023-02-15T08:34:41;18.30;21.60
11454;DHT22;5783;55.174;61.310;2023-02-15T08:37:10;18.20;21.30
11454;DHT22;5783;55.174;61.310;2023-02-15T08:39:39;18.00;20.80
11454;DHT22;5783;55.174;61.310;2023-02-15T08:42:09;18.10;21.40
11454;DHT22;5783;55.174;61.310;2023-02-15T08:44:39;18.20;21.20
11454;DHT22;5783;55.174;61.310;2023-02-15T08:47:08;18.40;21.20
11454;DHT22;5783;55.174;61.310;2023-02-15T08:49:37;18.70;20.90
11454;DHT22;5783;55.174;61.310;2023-02-15T08:52:06;18.90;21.10
11454;DHT22;5783;55.174;61.310;2023-02-15T08:54:35;18.90;20.30
11454;DHT22;5783;55.174;61.310;2023-02-15T08:57:04;19.10;20.40
11454;DHT22;5783;55.174;61.310;2023-02-15T08:59:33;19.30;20.00
11454;DHT22;5783;55.174;61.310;2023-02-15T09:02:02;19.40;19.70
11454;DHT22;5783;55.174;61.310;2023-02-15T09:04:32;19.50;19.60
11454;DHT22;5783;55.174;61.310;2023-02-15T09:07:01;19.70;19.90
11454;DHT22;5783;55.174;61.310;2023-02-15T09:09:31;19.80;19.20
11454;DHT22;5783;55.174;61.310;2023-02-15T09:12:00;19.90;19.30
11454;DHT22;5783;55.174;61.310;2023-02-15T09:14:29;19.90;19.20
11454;DHT22;5783;55.174;61.310;2023-02-15T09:17:32;19.90;19.20
11454;DHT22;5783;55.174;61.310;2023-02-15T09:19:31;20.00;19.40
11454;DHT22;5783;55.174;61.310;2023-02-15T09:22:00;20.00;18.70
11454;DHT22;5783;55.174;61.310;2023-02-15T09:24:31;19.90;18.60
11454;DHT22;5783;55.174;61.310;2023-02-15T09:27:00;19.90;19.00
11454;DHT22;5783;55.174;61.310;2023-02-15T09:29:29;19.90;18.80
11454;DHT22;5783;55.174;61.310;2023-02-15T09:31:59;19.90;18.80
11454;DHT22;5783;55.174;61.310;2023-02-15T09:34:28;19.80;18.50
11454;DHT22;5783;55.174;61.310;2023-02-15T09:36:58;19.70;18.30
11454;DHT22;5783;55.174;61.310;2023-02-15T09:39:27;19.50;18.60
11454;DHT22;5783;55.174;61.310;2023-02-15T09:54:32;18.80;18.60
11454;DHT22;5783;55.174;61.310;2023-02-15T09:59:41;18.20;19.40
11454;DHT22;5783;55.174;61.310;2023-02-15T10:05:40;18.00;20.10
11454;DHT22;5783;55.174;61.310;2023-02-15T10:22:44;18.90;20.30
11454;DHT22;5783;55.174;61.310;2023-02-15T10:30:56;18.80;19.60
11454;DHT22;5783;55.174;61.310;2023-02-15T10:33:44;18.50;19.20
11454;DHT22;5783;55.174;61.310;2023-02-15T10:49:23;18.20;19.20
11454;DHT22;5783;55.174;61.310;2023-02-15T11:06:28;19.10;19.60
11454;DHT22;5783;55.174;61.310;2023-02-15T11:11:50;19.60;19.10
11454;DHT22;5783;55.174;61.310;2023-02-15T11:18:23;19.70;18.80
11454;DHT22;5783;55.174;61.310;2023-02-15T11:23:27;19.30;18.50
11454;DHT22;5783;55.174;61.310;2023-02-15T11:31:59;18.90;18.60
11454;DHT22;5783;55.174;61.310;2023-02-15T11:34:31;18.70;18.50
11454;DHT22;5783;55.174;61.310;2023-02-15T11:37:05;18.40;18.50
11454;DHT22;5783;55.174;61.310;2023-02-15T11:39:33;18.10;18.50
11454;DHT22;5783;55.174;61.310;2023-02-15T11:47:45;17.80;19.00
11454;DHT22;5783;55.174;61.310;2023-02-15T11:50:16;17.80;19.10
11454;DHT22;5783;55.174;61.310;2023-02-15T11:52:49;17.80;18.90
11454;DHT22;5783;55.174;61.310;2023-02-15T11:55:21;17.70;18.80
11454;DHT22;5783;55.174;61.310;2023-02-15T12:01:22;17.90;19.10
11454;DHT22;5783;55.174;61.310;2023-02-15T12:03:52;18.00;19.30
11454;DHT22;5783;55.174;61.310;2023-02-15T12:07:00;18.20;19.40
11454;DHT22;5783;55.174;61.310;2023-02-15T12:15:13;18.10;19.20
11454;DHT22;5783;55.174;61.310;2023-02-15T12:18:02;17.90;19.70
11454;DHT22;5783;55.174;61.310;2023-02-15T12:20:33;17.80;19.50
11454;DHT22;5783;55.174;61.310;2023-02-15T12:25:55;17.80;19.40
11454;DHT22;5783;55.174;61.310;2023-02-15T12:31:36;17.80;19.50
11454;DHT22;5783;55.174;61.310;2023-02-15T12:35:00;17.80;19.40
11454;DHT22;5783;55.174;61.310;2023-02-15T12:42:56;18.30;19.30
11454;DHT22;5783;55.174;61.310;2023-02-15T12:48:18;18.50;19.70
11454;DHT22;5783;55.174;61.310;2023-02-15T12:50:49;18.60;19.50
11454;DHT22;5783;55.174;61.310;2023-02-15T12:53:29;18.50;19.20
11454;DHT22;5783;55.174;61.310;2023-02-15T12:56:12;18.40;18.80
11454;DHT22;5783;55.174;61.310;2023-02-15T12:58:42;18.30;19.00
11454;DHT22;5783;55.174;61.310;2023-02-15T13:04:05;17.90;18.60
11454;DHT22;5783;55.174;61.310;2023-02-15T13:06:36;17.60;18.40
11454;DHT22;5783;55.174;61.310;2023-02-15T13:12:18;17.20;18.50
11454;DHT22;5783;55.174;61.310;2023-02-15T13:14:50;16.90;18.40
11454;DHT22;5783;55.174;61.310;2023-02-15T13:20:31;16.70;18.80
11454;DHT22;5783;55.174;61.310;2023-02-15T13:28:48;16.70;19.20
11454;DHT22;5783;55.174;61.310;2023-02-15T13:31:20;16.70;19.00
11454;DHT22;5783;55.174;61.310;2023-02-15T13:34:10;16.80;18.90
11454;DHT22;5783;55.174;61.310;2023-02-15T13:40:12;16.60;18.80
11454;DHT22;5783;55.174;61.310;2023-02-15T13:52:12;16.30;18.80
11454;DHT22;5783;55.174;61.310;2023-02-15T14:01:18;15.90;18.80
11454;DHT22;5783;55.174;61.310;2023-02-15T14:29:01;15.90;18.90
11454;DHT22;5783;55.174;61.310;2023-02-15T14:31:29;15.90;18.90
11454;DHT22;5783;55.174;61.310;2023-02-15T14:33:59;15.90;19.10
11454;DHT22;5783;55.174;61.310;2023-02-15T14:36:28;15.90;19.50
11454;DHT22;5783;55.174;61.310;2023-02-15T14:42:12;15.90;19.30
11454;DHT22;5783;55.174;61.310;2023-02-15T14:50:42;15.70;19.20
11454;DHT22;5783;55.174;61.310;2023-02-15T14:53:33;15.50;19.20
11454;DHT22;5783;55.174;61.310;2023-02-15T14:56:24;15.20;19.10
11454;DHT22;5783;55.174;61.310;2023-02-15T14:58:56;15.00;19.40
11454;DHT22;5783;55.174;61.310;2023-02-15T15:10:53;14.50;21.50
11454;DHT22;5783;55.174;61.310;2023-02-15T15:13:51;14.40;22.10
11454;DHT22;5783;55.174;61.310;2023-02-15T15:22:33;14.30;22.90
11454;DHT22;5783;55.174;61.310;2023-02-15T15:27:55;14.30;22.90
11454;DHT22;5783;55.174;61.310;2023-02-15T15:51:32;14.10;23.50
11454;DHT22;5783;55.174;61.310;2023-02-15T15:54:04;14.20;23.60
11454;DHT22;5783;55.174;61.310;2023-02-15T15:56:35;14.20;23.70
11454;DHT22;5783;55.174;61.310;2023-02-15T15:59:07;14.20;23.60
11454;DHT22;5783;55.174;61.310;2023-02-15T16:01:39;14.20;23.80
11454;DHT22;5783;55.174;61.310;2023-02-15T16:04:30;14.10;24.00
11454;DHT22;5783;55.174;61.310;2023-02-15T16:10:44;14.10;24.20
11454;DHT22;5783;55.174;61.310;2023-02-15T16:12:41;14.20;24.70
11454;DHT22;5783;55.174;61.310;2023-02-15T16:18:23;14.20;24.50
11454;DHT22;5783;55.174;61.310;2023-02-15T16:32:33;14.30;24.40
11454;DHT22;5783;55.174;61.310;2023-02-15T16:35:11;14.20;24.40
11454;DHT22;5783;55.174;61.310;2023-02-15T16:37:34;14.20;24.10
11454;DHT22;5783;55.174;61.310;2023-02-15T16:40:13;14.20;24.20
11454;DHT22;5783;55.174;61.310;2023-02-15T16:42:37;14.20;24.30
11454;DHT22;5783;55.174;61.310;2023-02-15T16:45:26;14.30;24.30
11454;DHT22;5783;55.174;61.310;2023-02-15T16:47:58;14.20;24.30
11454;DHT22;5783;55.174;61.310;2023-02-15T16:50:49;14.20;24.50
11454;DHT22;5783;55.174;61.310;2023-02-15T16:53:22;14.20;24.50
11454;DHT22;5783;55.174;61.310;2023-02-15T16:55:53;14.30;24.40
11454;DHT22;5783;55.174;61.310;2023-02-15T17:01:15;14.30;24.40
11454;DHT22;5783;55.174;61.310;2023-02-15T17:03:48;14.30;24.60
11454;DHT22;5783;55.174;61.310;2023-02-15T17:12:03;14.30;24.80
11454;DHT22;5783;55.174;61.310;2023-02-15T17:14:37;14.30;24.70
11454;DHT22;5783;55.174;61.310;2023-02-15T17:17:11;14.40;24.60
11454;DHT22;5783;55.174;61.310;2023-02-15T17:19:58;14.40;24.40
11454;DHT22;5783;55.174;61.310;2023-02-15T17:22:28;14.40;24.30
11454;DHT22;5783;55.174;61.310;2023-02-15T17:25:50;14.30;24.60
11454;DHT22;5783;55.174;61.310;2023-02-15T17:28:15;14.30;24.60
11454;DHT22;5783;55.174;61.310;2023-02-15T17:30:40;14.30;24.70
11454;DHT22;5783;55.174;61.310;2023-02-15T17:36:21;14.30;24.60
11454;DHT22;5783;55.174;61.310;2023-02-15T17:41:59;14.30;24.30
11454;DHT22;5783;55.174;61.310;2023-02-15T17:44:28;14.30;24.50
11454;DHT22;5783;55.174;61.310;2023-02-15T17:46:57;14.30;24.80
11454;DHT22;5783;55.174;61.310;2023-02-15T17:49:27;14.20;24.80
11454;DHT22;5783;55.174;61.310;2023-02-15T17:51:57;14.20;25.00
11454;DHT22;5783;55.174;61.310;2023-02-15T17:54:27;14.20;24.90
11454;DHT22;5783;55.174;61.310;2023-02-15T17:57:16;14.30;25.00
11454;DHT22;5783;55.174;61.310;2023-02-15T17:59:45;14.30;25.00
11454;DHT22;5783;55.174;61.310;2023-02-15T18:02:35;14.20;25.00
11454;DHT22;5783;55.174;61.310;2023-02-15T18:05:24;14.30;25.00
11454;DHT22;5783;55.174;61.310;2023-02-15T18:08:17;14.30;25.00
11454;DHT22;5783;55.174;61.310;2023-02-15T18:11:08;14.30;25.00
11454;DHT22;5783;55.174;61.310;2023-02-15T18:13:58;14.30;24.70
11454;DHT22;5783;55.174;61.310;2023-02-15T18:19:22;14.30;24.70
11454;DHT22;5783;55.174;61.310;2023-02-15T18:21:52;14.30;24.70
11454;DHT22;5783;55.174;61.310;2023-02-15T18:24:25;14.30;24.70
11454;DHT22;5783;55.174;61.310;2023-02-15T18:26:54;14.20;24.40
11454;DHT22;5783;55.174;61.310;2023-02-15T18:29:43;14.20;24.80
11454;DHT22;5783;55.174;61.310;2023-02-15T18:32:34;14.20;24.70
11454;DHT22;5783;55.174;61.310;2023-02-15T18:35:06;14.20;24.80
11454;DHT22;5783;55.174;61.310;2023-02-15T18:37:35;14.20;24.80
11454;DHT22;5783;55.174;61.310;2023-02-15T18:40:05;14.20;24.90
11454;DHT22;5783;55.174;61.310;2023-02-15T18:42:34;14.30;25.00
11454;DHT22;5783;55.174;61.310;2023-02-15T18:45:41;14.30;25.00
11454;DHT22;5783;55.174;61.310;2023-02-15T18:47:37;14.30;25.30
11454;DHT22;5783;55.174;61.310;2023-02-15T18:50:08;14.40;25.10
11454;DHT22;5783;55.174;61.310;2023-02-15T18:52:37;14.40;25.10
11454;DHT22;5783;55.174;61.310;2023-02-15T18:55:26;14.30;25.20
11454;DHT22;5783;55.174;61.310;2023-02-15T18:57:58;14.30;25.30
11454;DHT22;5783;55.174;61.310;2023-02-15T19:00:30;14.30;25.40
11454;DHT22;5783;55.174;61.310;2023-02-15T19:03:00;14.30;25.40
11454;DHT22;5783;55.174;61.310;2023-02-15T19:05:31;14.30;25.30
11454;DHT22;5783;55.174;61.310;2023-02-15T19:08:01;14.40;25.00
11454;DHT22;5783;55.174;61.310;2023-02-15T19:10:32;14.40;25.00
11454;DHT22;5783;55.174;61.310;2023-02-15T19:13:01;14.40;25.00
11454;DHT22;5783;55.174;61.310;2023-02-15T19:15:30;14.30;24.70
11454;DHT22;5783;55.174;61.310;2023-02-15T19:17:59;14.30;24.90
11454;DHT22;5783;55.174;61.310;2023-02-15T19:20:31;14.30;24.80
11454;DHT22;5783;55.174;61.310;2023-02-15T19:23:01;14.20;24.70
11454;DHT22;5783;55.174;61.310;2023-02-15T19:25:33;14.20;24.70
11454;DHT22;5783;55.174;61.310;2023-02-15T19:28:41;14.20;24.80
11454;DHT22;5783;55.174;61.310;2023-02-15T19:30:37;14.20;24.80
11454;DHT22;5783;55.174;61.310;2023-02-15T19:33:08;14.10;24.80
11454;DHT22;5783;55.174;61.310;2023-02-15T19:35:36;14.10;25.10
11454;DHT22;5783;55.174;61.310;2023-02-15T19:38:11;14.10;25.30
11454;DHT22;5783;55.174;61.310;2023-02-15T19:40:39;14.20;25.40
11454;DHT22;5783;55.174;61.310;2023-02-15T19:43:28;14.20;25.40
11454;DHT22;5783;55.174;61.310;2023-02-15T19:45:57;14.20;25.40
11454;DHT22;5783;55.174;61.310;2023-02-15T19:48:26;14.20;25.30
11454;DHT22;5783;55.174;61.310;2023-02-15T19:50:55;14.30;25.20
11454;DHT22;5783;55.174;61.310;2023-02-15T19:53:26;14.30;25.30
11454;DHT22;5783;55.174;61.310;2023-02-15T19:55:56;14.30;25.40
11454;DHT22;5783;55.174;61.310;2023-02-15T19:58:25;14.30;25.30
11454;DHT22;5783;55.174;61.310;2023-02-15T20:00:55;14.30;25.30
11454;DHT22;5783;55.174;61.310;2023-02-15T20:03:24;14.30;25.30
11454;DHT22;5783;55.174;61.310;2023-02-15T20:05:53;14.30;25.50
11454;DHT22;5783;55.174;61.310;2023-02-15T20:08:23;14.30;25.50
11454;DHT22;5783;55.174;61.310;2023-02-15T20:10:52;14.30;25.30
11454;DHT22;5783;55.174;61.310;2023-02-15T20:13:21;14.30;25.10
11454;DHT22;5783;55.174;61.310;2023-02-15T20:15:51;14.30;25.30
11454;DHT22;5783;55.174;61.310;2023-02-15T20:18:20;14.30;25.20
11454;DHT22;5783;55.174;61.310;2023-02-15T20:20:51;14.30;25.20
11454;DHT22;5783;55.174;61.310;2023-02-15T20:26:15;14.40;24.90
11454;DHT22;5783;55.174;61.310;2023-02-15T20:28:45;14.40;25.00
11454;DHT22;5783;55.174;61.310;2023-02-15T20:31:16;14.40;24.90
11454;DHT22;5783;55.174;61.310;2023-02-15T20:34:07;14.40;25.00
11454;DHT22;5783;55.174;61.310;2023-02-15T20:36:37;14.40;25.20
11454;DHT22;5783;55.174;61.310;2023-02-15T20:39:26;14.30;25.00
11454;DHT22;5783;55.174;61.310;2023-02-15T20:41:55;14.30;25.20
11454;DHT22;5783;55.174;61.310;2023-02-15T20:44:44;14.30;25.20
11454;DHT22;5783;55.174;61.310;2023-02-15T20:47:13;14.30;25.10
11454;DHT22;5783;55.174;61.310;2023-02-15T20:49:44;14.30;25.20
11454;DHT22;5783;55.174;61.310;2023-02-15T20:52:32;14.30;25.10
11454;DHT22;5783;55.174;61.310;2023-02-15T20:55:02;14.30;25.10
11454;DHT22;5783;55.174;61.310;2023-02-15T20:57:31;14.30;25.20
11454;DHT22;5783;55.174;61.310;2023-02-15T21:00:00;14.20;25.20
11454;DHT22;5783;55.174;61.310;2023-02-15T21:02:31;14.20;25.30
11454;DHT22;5783;55.174;61.310;2023-02-15T21:05:00;14.20;25.30
11454;DHT22;5783;55.174;61.310;2023-02-15T21:07:31;14.30;25.40
11454;DHT22;5783;55.174;61.310;2023-02-15T21:10:00;14.30;25.30
11454;DHT22;5783;55.174;61.310;2023-02-15T21:12:31;14.30;25.90
11454;DHT22;5783;55.174;61.310;2023-02-15T21:15:00;14.30;25.20
11454;DHT22;5783;55.174;61.310;2023-02-15T21:17:31;14.40;25.00
11454;DHT22;5783;55.174;61.310;2023-02-15T21:20:00;14.40;25.20
11454;DHT22;5783;55.174;61.310;2023-02-15T21:22:31;14.40;25.30